createdAt,value
2023-02-23T00:01:17.212Z,11.27
2023-02-23T00:03:44.338Z,10.10
2023-02-23T00:06:11.403Z,9.70
2023-02-23T00:08:38.098Z,10.20
2023-02-23T00:11:05.591Z,10.13
2023-02-23T00:13:33.090Z,10.30
2023-02-23T00:15:59.896Z,10.27
2023-02-23T00:18:30.102Z,10.37
2023-02-23T00:20:57.690Z,9.70
2023-02-23T00:23:27.340Z,10.23
2023-02-23T00:25:53.845Z,10.57
2023-02-23T00:28:20.395Z,10.40
2023-02-23T00:30:46.962Z,10.40
2023-02-23T00:33:13.589Z,10.90
2023-02-23T00:35:40.461Z,10.67
2023-02-23T00:38:06.970Z,11.40
2023-02-23T00:40:33.510Z,11.30
2023-02-23T00:43:00.340Z,10.77
2023-02-23T00:45:26.898Z,10.33
2023-02-23T00:47:53.916Z,11.07
2023-02-23T00:50:20.604Z,11.87
2023-02-23T00:52:47.302Z,11.50
2023-02-23T00:55:14.972Z,10.43
2023-02-23T00:57:41.562Z,10.80
2023-02-23T01:00:18.734Z,10.20
2023-02-23T01:02:45.407Z,11.07
2023-02-23T01:05:11.986Z,11.60
2023-02-23T01:07:38.660Z,11.80
2023-02-23T01:10:19.037Z,11.63
2023-02-23T01:12:49.130Z,11.00
2023-02-23T01:15:16.120Z,11.83
2023-02-23T01:17:43.129Z,12.10
2023-02-23T01:20:19.388Z,11.77
2023-02-23T01:22:47.136Z,10.73
2023-02-23T01:25:14.381Z,10.93
2023-02-23T01:27:41.416Z,12.20
2023-02-23T01:30:09.692Z,10.27
2023-02-23T01:32:37.699Z,11.17
2023-02-23T01:35:08.317Z,11.63
2023-02-23T01:37:40.655Z,11.80
2023-02-23T01:40:28.889Z,11.43
2023-02-23T01:42:57.681Z,11.40
2023-02-23T01:45:30.372Z,10.87
2023-02-23T01:48:01.690Z,10.60
2023-02-23T01:50:30.573Z,11.50
2023-02-23T01:52:58.784Z,11.73
2023-02-23T01:55:26.074Z,11.40
2023-02-23T01:57:59.564Z,11.93
2023-02-23T02:00:26.476Z,11.17
2023-02-23T02:02:53.096Z,10.83
2023-02-23T02:05:20.164Z,12.40
2023-02-23T02:07:50.851Z,11.17
2023-02-23T02:10:38.731Z,11.27
2023-02-23T02:13:06.579Z,11.03
2023-02-23T02:15:38.693Z,11.20
2023-02-23T02:18:23.920Z,11.43
2023-02-23T02:20:56.697Z,11.57
2023-02-23T02:23:36.806Z,10.80
2023-02-23T02:26:32.886Z,11.97
2023-02-23T02:29:14.698Z,11.83
2023-02-23T02:32:20.155Z,12.17
2023-02-23T02:34:54.173Z,11.73
2023-02-23T02:37:23.647Z,11.67
2023-02-23T02:40:15.818Z,12.60
2023-02-23T02:42:48.583Z,12.57
2023-02-23T02:45:27.118Z,12.50
2023-02-23T02:48:14.200Z,11.93
2023-02-23T02:50:43.693Z,11.80
2023-02-23T02:53:13.600Z,12.20
2023-02-23T02:55:43.711Z,12.30
2023-02-23T02:58:12.854Z,12.87
2023-02-23T03:00:58.102Z,11.93
2023-02-23T03:04:12.340Z,12.10
2023-02-23T03:07:02.629Z,11.80
2023-02-23T03:10:12.417Z,11.97
2023-02-23T03:13:21.310Z,12.63
2023-02-23T03:16:24.755Z,13.07
2023-02-23T03:19:16.229Z,12.70
2023-02-23T03:22:12.948Z,11.40
2023-02-23T03:25:00.938Z,12.33
2023-02-23T03:28:06.496Z,12.33
2023-02-23T03:31:18.551Z,12.07
2023-02-23T03:34:12.106Z,12.80
2023-02-23T03:36:59.249Z,13.30
2023-02-23T03:39:55.272Z,12.37
2023-02-23T03:42:45.341Z,12.47
2023-02-23T03:45:33.265Z,12.20
2023-02-23T03:48:22.001Z,12.57
2023-02-23T03:51:12.853Z,13.30
2023-02-23T03:54:06.661Z,13.97
2023-02-23T03:56:53.879Z,13.57
2023-02-23T03:59:40.498Z,12.93
2023-02-23T04:02:26.898Z,13.43
2023-02-23T04:05:13.088Z,14.27
2023-02-23T04:07:58.805Z,13.47
2023-02-23T04:10:45.043Z,13.70
2023-02-23T04:13:16.480Z,13.17
2023-02-23T04:15:45.782Z,13.27
2023-02-23T04:18:13.974Z,13.57
2023-02-23T04:20:40.525Z,14.57
2023-02-23T04:23:07.051Z,14.27
2023-02-23T04:25:33.573Z,13.57
2023-02-23T04:28:00.110Z,13.53
2023-02-23T04:30:28.394Z,14.17
2023-02-23T04:32:55.394Z,14.53
2023-02-23T04:35:22.255Z,13.83
2023-02-23T04:37:48.776Z,14.20
2023-02-23T04:40:15.305Z,13.40
2023-02-23T04:42:42.149Z,14.03
2023-02-23T04:45:08.941Z,14.37
2023-02-23T04:47:35.454Z,13.60
2023-02-23T04:50:01.989Z,14.80
2023-02-23T04:52:28.624Z,13.90
2023-02-23T04:54:55.193Z,13.03
2023-02-23T04:57:21.700Z,14.40
2023-02-23T04:59:48.232Z,14.20
2023-02-23T05:02:14.769Z,14.27
2023-02-23T05:04:41.329Z,13.53
2023-02-23T05:07:07.899Z,13.90
2023-02-23T05:09:35.066Z,14.67
2023-02-23T05:12:01.644Z,14.83
2023-02-23T05:14:28.203Z,14.83
2023-02-23T05:16:54.725Z,14.80
2023-02-23T05:19:21.677Z,20.80
2023-02-23T05:21:50.420Z,14.50
2023-02-23T05:24:17.603Z,14.40
2023-02-23T05:26:45.097Z,14.90
2023-02-23T05:29:12.225Z,14.43
2023-02-23T05:31:38.837Z,14.37
2023-02-23T05:34:05.571Z,14.10
2023-02-23T05:36:32.076Z,14.67
2023-02-23T05:38:58.593Z,13.80
2023-02-23T05:41:25.156Z,14.83
2023-02-23T05:43:52.693Z,16.17
2023-02-23T05:46:21.385Z,15.37
2023-02-23T05:48:48.037Z,14.47
2023-02-23T05:51:15.348Z,15.23
2023-02-23T05:53:41.958Z,16.23
2023-02-23T05:56:11.908Z,16.30
2023-02-23T05:58:38.437Z,16.60
2023-02-23T06:01:05.074Z,16.13
2023-02-23T06:03:31.692Z,16.80
2023-02-23T06:05:58.862Z,16.53
2023-02-23T06:08:26.400Z,15.83
2023-02-23T06:10:53.316Z,15.50
2023-02-23T06:13:21.260Z,15.87
2023-02-23T06:15:49.421Z,15.67
2023-02-23T06:18:17.567Z,16.33
2023-02-23T06:20:45.843Z,16.47
2023-02-23T06:23:12.409Z,16.00
2023-02-23T06:25:40.394Z,15.47
2023-02-23T06:28:08.601Z,15.57
2023-02-23T06:30:35.761Z,14.57
2023-02-23T06:33:02.328Z,16.50
2023-02-23T06:35:28.941Z,16.90
2023-02-23T06:37:55.465Z,16.23
2023-02-23T06:40:21.947Z,16.20
2023-02-23T06:42:48.693Z,15.50
2023-02-23T06:45:15.244Z,15.67
2023-02-23T06:47:41.937Z,15.13
2023-02-23T06:50:09.121Z,16.03
2023-02-23T06:52:35.651Z,16.87
2023-02-23T06:55:02.220Z,15.87
2023-02-23T06:57:28.777Z,15.03
2023-02-23T06:59:55.438Z,15.17
2023-02-23T07:02:21.940Z,15.67
2023-02-23T07:04:48.530Z,15.37
2023-02-23T07:07:15.250Z,15.33
2023-02-23T07:09:42.908Z,15.67
2023-02-23T07:12:10.173Z,15.47
2023-02-23T07:14:37.729Z,15.53
2023-02-23T07:17:04.951Z,15.87
2023-02-23T07:19:32.344Z,15.67
2023-02-23T07:21:59.012Z,16.47
2023-02-23T07:24:26.052Z,15.20
2023-02-23T07:26:52.562Z,15.70
2023-02-23T07:29:20.662Z,15.90
2023-02-23T07:31:50.049Z,17.43
2023-02-23T07:34:16.730Z,18.77
2023-02-23T07:36:43.260Z,21.63
2023-02-23T07:39:09.773Z,17.63
2023-02-23T07:41:36.374Z,17.03
2023-02-23T07:44:03.063Z,16.83
2023-02-23T07:46:29.548Z,16.40
2023-02-23T07:48:56.116Z,16.53
2023-02-23T07:51:22.620Z,16.33
2023-02-23T07:53:49.488Z,16.67
2023-02-23T07:56:16.144Z,17.03
2023-02-23T07:58:43.835Z,16.60
2023-02-23T08:01:13.750Z,17.93
2023-02-23T08:03:40.602Z,18.03
2023-02-23T08:06:07.230Z,17.00
2023-02-23T08:08:35.347Z,18.23
2023-02-23T08:11:03.221Z,17.23
2023-02-23T08:13:29.913Z,16.40
2023-02-23T08:15:56.969Z,20.10
2023-02-23T08:18:23.957Z,25.37
2023-02-23T08:20:50.520Z,24.20
2023-02-23T08:23:18.226Z,21.80
2023-02-23T08:25:44.843Z,25.03
2023-02-23T08:28:12.145Z,21.20
2023-02-23T08:30:40.968Z,24.53
2023-02-23T08:33:08.273Z,43.57
2023-02-23T08:35:34.835Z,41.60
2023-02-23T08:38:01.414Z,30.40
2023-02-23T08:40:28.008Z,19.40
2023-02-23T08:42:54.613Z,17.90
2023-02-23T08:45:21.471Z,17.50
2023-02-23T08:47:48.030Z,16.60
2023-02-23T08:50:15.076Z,17.80
2023-02-23T08:52:42.574Z,17.67
2023-02-23T08:55:11.765Z,18.07
2023-02-23T08:57:38.342Z,16.40
2023-02-23T09:00:14.217Z,17.77
2023-02-23T09:02:41.575Z,16.50
2023-02-23T09:05:08.776Z,17.17
2023-02-23T09:07:35.523Z,17.50
2023-02-23T09:10:02.095Z,16.67
2023-02-23T09:12:28.604Z,17.77
2023-02-23T09:14:55.203Z,18.30
2023-02-23T09:17:23.016Z,17.43
2023-02-23T09:19:50.563Z,16.33
2023-02-23T09:22:18.470Z,17.50
2023-02-23T09:24:45.266Z,16.00
2023-02-23T09:27:14.802Z,16.10
2023-02-23T09:29:42.388Z,15.33
2023-02-23T09:32:09.389Z,19.93
2023-02-23T09:34:37.562Z,19.20
2023-02-23T09:37:04.624Z,16.53
2023-02-23T09:39:37.997Z,24.97
2023-02-23T09:42:08.167Z,22.13
2023-02-23T09:44:46.642Z,20.10
2023-02-23T09:47:13.228Z,15.17
2023-02-23T09:49:40.982Z,13.53
2023-02-23T09:52:11.119Z,14.63
2023-02-23T09:54:37.697Z,14.10
2023-02-23T09:57:06.659Z,13.67
2023-02-23T09:59:35.559Z,13.63
2023-02-23T10:02:21.104Z,13.60
2023-02-23T10:04:50.015Z,13.60
2023-02-23T10:07:31.701Z,13.27
2023-02-23T10:10:13.358Z,13.77
2023-02-23T10:12:48.977Z,11.90
2023-02-23T10:15:15.593Z,15.47
2023-02-23T10:17:44.992Z,13.40
2023-02-23T10:20:11.473Z,13.17
2023-02-23T10:22:38.692Z,13.27
2023-02-23T10:25:25.712Z,13.47
2023-02-23T10:27:55.778Z,11.53
2023-02-23T10:30:29.846Z,12.13
2023-02-23T10:33:01.411Z,11.30
2023-02-23T10:35:29.335Z,11.50
2023-02-23T10:37:56.275Z,11.70
2023-02-23T10:40:25.276Z,12.17
2023-02-23T10:42:52.550Z,11.67
2023-02-23T10:45:23.313Z,19.37
2023-02-23T10:48:05.324Z,16.07
2023-02-23T10:50:32.444Z,11.47
2023-02-23T10:53:00.710Z,10.77
2023-02-23T10:55:28.805Z,10.93
2023-02-23T10:58:08.513Z,10.83
2023-02-23T11:00:37.786Z,10.57
2023-02-23T11:03:16.676Z,10.80
2023-02-23T11:05:45.542Z,11.50
2023-02-23T11:08:26.181Z,11.30
2023-02-23T11:11:03.527Z,11.03
2023-02-23T11:13:42.437Z,11.20
2023-02-23T11:16:15.102Z,12.17
2023-02-23T11:18:43.496Z,11.67
2023-02-23T11:21:11.301Z,11.63
2023-02-23T11:23:39.126Z,11.27
2023-02-23T11:26:37.955Z,15.47
2023-02-23T11:29:12.216Z,11.60
2023-02-23T11:31:40.734Z,11.10
2023-02-23T11:34:07.528Z,10.93
2023-02-23T11:36:36.148Z,11.17
2023-02-23T11:39:23.505Z,11.57
2023-02-23T11:42:08.657Z,11.20
2023-02-23T11:44:35.198Z,11.27
2023-02-23T11:47:03.377Z,11.20
2023-02-23T11:49:33.234Z,11.47
2023-02-23T11:51:59.791Z,12.23
2023-02-23T11:54:34.020Z,11.13
2023-02-23T11:57:02.944Z,12.17
2023-02-23T11:59:40.525Z,11.40
2023-02-23T12:02:19.294Z,12.20
2023-02-23T12:04:47.727Z,11.30
2023-02-23T12:07:31.499Z,11.53
2023-02-23T12:10:06.554Z,12.03
2023-02-23T12:12:38.768Z,12.57
2023-02-23T12:15:15.782Z,12.67
2023-02-23T12:17:49.296Z,11.87
2023-02-23T12:20:22.078Z,10.87
2023-02-23T12:22:54.668Z,11.23
2023-02-23T12:25:27.510Z,11.43
2023-02-23T12:27:57.054Z,11.30
2023-02-23T12:30:24.327Z,10.80
2023-02-23T12:33:00.336Z,10.70
2023-02-23T12:35:36.008Z,11.23
2023-02-23T12:38:17.582Z,10.33
2023-02-23T12:40:44.946Z,10.57
2023-02-23T12:43:14.878Z,11.47
2023-02-23T12:45:49.480Z,10.60
2023-02-23T12:48:16.010Z,10.50
2023-02-23T12:50:50.377Z,10.10
2023-02-23T12:53:38.016Z,11.13
2023-02-23T12:56:20.505Z,10.40
2023-02-23T12:58:47.148Z,10.23
2023-02-23T13:01:21.748Z,10.33
2023-02-23T13:03:56.898Z,10.07
2023-02-23T13:06:36.772Z,9.03
2023-02-23T13:09:08.505Z,10.20
2023-02-23T13:11:49.885Z,10.27
2023-02-23T13:14:19.110Z,11.80
2023-02-23T13:16:51.548Z,12.00
2023-02-23T13:19:24.252Z,11.77
2023-02-23T13:21:54.201Z,11.13
2023-02-23T13:24:25.455Z,11.50
2023-02-23T13:26:58.050Z,12.27
2023-02-23T13:29:45.060Z,11.77
2023-02-23T13:32:13.681Z,11.53
2023-02-23T13:35:00.765Z,11.63
2023-02-23T13:37:36.626Z,11.47
2023-02-23T13:40:03.176Z,11.17
2023-02-23T13:42:39.002Z,13.33
2023-02-23T13:45:06.481Z,11.70
2023-02-23T13:47:32.961Z,11.70
2023-02-23T13:50:15.509Z,12.33
2023-02-23T13:52:43.280Z,11.10
2023-02-23T13:55:34.636Z,11.73
2023-02-23T13:58:11.613Z,12.67
2023-02-23T14:00:38.170Z,12.67
2023-02-23T14:03:05.839Z,12.60
2023-02-23T14:05:41.356Z,12.47
2023-02-23T14:08:07.967Z,13.13
2023-02-23T14:10:39.521Z,12.13
2023-02-23T14:13:17.795Z,11.37
2023-02-23T14:15:48.290Z,11.40
2023-02-23T14:18:21.081Z,12.43
2023-02-23T14:21:02.639Z,12.23
2023-02-23T14:23:34.943Z,12.70
2023-02-23T14:26:11.551Z,13.47
2023-02-23T14:29:01.062Z,13.40
2023-02-23T14:31:31.141Z,12.40
2023-02-23T14:33:59.754Z,13.07
2023-02-23T14:36:29.018Z,12.87
2023-02-23T14:39:01.292Z,13.17
2023-02-23T14:41:33.767Z,12.73
2023-02-23T14:44:03.962Z,14.07
2023-02-23T14:46:31.832Z,12.83
2023-02-23T14:49:05.749Z,12.83
2023-02-23T14:51:42.173Z,12.30
2023-02-23T14:54:24.133Z,13.70
2023-02-23T14:56:52.107Z,14.03
2023-02-23T14:59:21.055Z,13.87
2023-02-23T15:01:48.078Z,13.30
2023-02-23T15:04:17.336Z,11.97
2023-02-23T15:06:46.983Z,13.47
2023-02-23T15:09:18.428Z,13.77
2023-02-23T15:11:48.647Z,13.70
2023-02-23T15:14:26.913Z,13.27
2023-02-23T15:16:56.063Z,12.87
2023-02-23T15:19:24.724Z,13.60
2023-02-23T15:21:55.194Z,12.27
2023-02-23T15:24:24.574Z,15.37
2023-02-23T15:26:51.873Z,16.20
2023-02-23T15:29:19.921Z,16.07
2023-02-23T15:31:52.532Z,16.17
2023-02-23T15:34:20.651Z,15.83
2023-02-23T15:36:58.065Z,14.57
2023-02-23T15:39:47.938Z,16.37
2023-02-23T15:42:17.350Z,16.43
2023-02-23T15:44:45.151Z,16.93
2023-02-23T15:47:22.489Z,15.67
2023-02-23T15:49:50.280Z,18.13
2023-02-23T15:52:22.076Z,17.43
2023-02-23T15:54:48.582Z,18.63
2023-02-23T15:57:35.342Z,18.33
2023-02-23T16:00:09.049Z,15.93
2023-02-23T16:02:36.075Z,17.57
2023-02-23T16:05:18.115Z,17.27
2023-02-23T16:07:44.774Z,20.57
2023-02-23T16:10:24.934Z,19.93
2023-02-23T16:12:52.859Z,20.37
2023-02-23T16:15:19.473Z,21.17
2023-02-23T16:17:48.464Z,19.80
2023-02-23T16:20:21.475Z,18.13
2023-02-23T16:22:54.886Z,17.83
2023-02-23T16:25:22.351Z,16.13
2023-02-23T16:27:55.060Z,17.23
2023-02-23T16:30:24.157Z,15.93
2023-02-23T16:33:09.398Z,18.07
2023-02-23T16:35:47.011Z,19.33
2023-02-23T16:38:27.366Z,18.37
2023-02-23T16:40:54.419Z,16.63
2023-02-23T16:43:21.598Z,17.80
2023-02-23T16:45:48.501Z,16.60
2023-02-23T16:48:16.279Z,17.40
2023-02-23T16:50:43.386Z,18.00
2023-02-23T16:53:10.718Z,17.30
2023-02-23T16:55:41.684Z,18.10
2023-02-23T16:58:10.570Z,17.63
2023-02-23T17:00:37.254Z,17.10
2023-02-23T17:03:06.693Z,17.33
2023-02-23T17:05:33.458Z,17.77
2023-02-23T17:08:00.038Z,18.03
2023-02-23T17:10:28.766Z,17.07
2023-02-23T17:12:59.767Z,16.80
2023-02-23T17:15:29.157Z,16.07
2023-02-23T17:17:56.631Z,17.50
2023-02-23T17:20:25.983Z,17.57
2023-02-23T17:22:56.521Z,16.80
2023-02-23T17:25:24.354Z,17.77
2023-02-23T17:27:51.163Z,16.37
2023-02-23T17:30:17.836Z,17.23
2023-02-23T17:32:44.633Z,17.70
2023-02-23T17:35:11.745Z,16.40
2023-02-23T17:37:38.332Z,16.53
2023-02-23T17:40:09.773Z,16.70
2023-02-23T17:42:36.409Z,15.63
2023-02-23T17:45:03.854Z,18.67
2023-02-23T17:47:30.904Z,17.90
2023-02-23T17:49:58.115Z,18.77
2023-02-23T17:52:25.154Z,20.70
2023-02-23T17:54:52.973Z,19.00
2023-02-23T17:57:19.515Z,21.77
2023-02-23T17:59:46.031Z,23.83
2023-02-23T18:02:18.221Z,21.23
2023-02-23T18:04:44.894Z,23.33
2023-02-23T18:07:11.507Z,24.17
2023-02-23T18:09:38.218Z,23.80
2023-02-23T18:12:05.196Z,22.43
2023-02-23T18:14:32.367Z,24.50
2023-02-23T18:16:59.130Z,22.33
2023-02-23T18:19:26.138Z,24.80
2023-02-23T18:21:56.058Z,28.87
2023-02-23T18:24:27.209Z,28.97
2023-02-23T18:27:01.707Z,28.73
2023-02-23T18:29:32.683Z,30.63
2023-02-23T18:31:59.981Z,31.80
2023-02-23T18:34:27.558Z,34.03
2023-02-23T18:36:54.999Z,37.40
2023-02-23T18:39:21.896Z,36.43
2023-02-23T18:41:49.161Z,37.90
2023-02-23T18:44:17.120Z,36.40
2023-02-23T18:46:45.393Z,37.07
2023-02-23T18:49:13.601Z,34.60
2023-02-23T18:51:41.683Z,36.83
2023-02-23T18:54:16.905Z,40.30
2023-02-23T18:56:43.874Z,35.93
2023-02-23T18:59:10.760Z,36.73
2023-02-23T19:01:37.694Z,36.53
2023-02-23T19:04:05.342Z,34.80
2023-02-23T19:06:32.498Z,33.60
2023-02-23T19:08:59.893Z,38.30
2023-02-23T19:11:28.003Z,34.13
2023-02-23T19:13:55.366Z,32.10
2023-02-23T19:16:22.161Z,33.43
2023-02-23T19:18:49.089Z,34.97
2023-02-23T19:21:17.590Z,37.30
2023-02-23T19:23:44.905Z,33.20
2023-02-23T19:26:11.756Z,34.63
2023-02-23T19:28:38.403Z,35.43
2023-02-23T19:31:12.333Z,32.03
2023-02-23T19:33:39.250Z,32.43
2023-02-23T19:36:06.697Z,35.43
2023-02-23T19:38:33.468Z,35.17
2023-02-23T19:41:00.099Z,34.93
2023-02-23T19:43:26.705Z,34.50
2023-02-23T19:45:54.582Z,34.80
2023-02-23T19:48:21.948Z,35.73
2023-02-23T19:50:49.447Z,36.60
2023-02-23T19:53:16.111Z,34.87
2023-02-23T19:55:42.797Z,34.33
2023-02-23T19:58:09.449Z,34.27
2023-02-23T20:00:36.072Z,35.40
2023-02-23T20:03:06.350Z,37.87
2023-02-23T20:05:42.422Z,34.30
2023-02-23T20:08:09.789Z,36.93
2023-02-23T20:10:39.057Z,35.47
2023-02-23T20:13:05.527Z,36.43
2023-02-23T20:15:32.053Z,33.87
2023-02-23T20:18:00.179Z,34.93
2023-02-23T20:20:29.157Z,36.43
2023-02-23T20:22:55.721Z,37.13
2023-02-23T20:25:22.830Z,35.47
2023-02-23T20:27:52.781Z,34.47
2023-02-23T20:30:20.007Z,36.90
2023-02-23T20:32:46.744Z,47.60
2023-02-23T20:35:14.895Z,41.53
2023-02-23T20:37:41.545Z,39.63
2023-02-23T20:40:16.327Z,42.23
2023-02-23T20:42:44.575Z,43.13
2023-02-23T20:45:11.912Z,42.40
2023-02-23T20:47:39.388Z,40.93
2023-02-23T20:50:06.247Z,42.70
2023-02-23T20:52:32.770Z,41.67
2023-02-23T20:54:59.588Z,43.03
2023-02-23T20:57:26.921Z,43.00
2023-02-23T20:59:53.440Z,39.53
2023-02-23T21:02:19.990Z,43.80
2023-02-23T21:04:46.611Z,43.50
2023-02-23T21:07:13.562Z,41.60
2023-02-23T21:09:40.834Z,43.50
2023-02-23T21:12:11.117Z,42.83
2023-02-23T21:14:37.666Z,43.33
2023-02-23T21:17:05.361Z,41.80
2023-02-23T21:19:31.959Z,44.30
2023-02-23T21:22:00.707Z,44.63
2023-02-23T21:24:27.398Z,41.90
2023-02-23T21:26:54.283Z,43.80
2023-02-23T21:29:23.686Z,50.73
2023-02-23T21:31:50.453Z,45.10
2023-02-23T21:34:20.040Z,45.27
2023-02-23T21:36:47.962Z,48.90
2023-02-23T21:39:14.524Z,46.63
2023-02-23T21:41:41.190Z,44.57
2023-02-23T21:44:08.441Z,45.67
2023-02-23T21:46:37.558Z,49.27
2023-02-23T21:49:09.544Z,51.60
2023-02-23T21:51:36.677Z,49.03
2023-02-23T21:54:04.196Z,51.80
2023-02-23T21:56:32.728Z,53.07
2023-02-23T21:58:59.402Z,56.23
2023-02-23T22:01:27.857Z,53.73
2023-02-23T22:03:55.301Z,53.43
2023-02-23T22:06:23.126Z,53.30
2023-02-23T22:08:50.660Z,54.17
2023-02-23T22:11:19.544Z,54.87
2023-02-23T22:13:46.978Z,53.77
2023-02-23T22:16:14.316Z,52.07
2023-02-23T22:18:41.552Z,54.17
2023-02-23T22:21:09.847Z,53.73
2023-02-23T22:23:36.524Z,50.93
2023-02-23T22:26:03.096Z,53.37
2023-02-23T22:28:29.813Z,51.97
2023-02-23T22:30:56.513Z,52.07
2023-02-23T22:33:23.686Z,51.77
2023-02-23T22:35:50.852Z,50.67
2023-02-23T22:38:20.392Z,50.13
2023-02-23T22:40:47.872Z,50.87
2023-02-23T22:43:17.329Z,48.27
2023-02-23T22:45:44.451Z,52.60
2023-02-23T22:48:11.031Z,48.50
2023-02-23T22:50:37.684Z,46.63
2023-02-23T22:53:04.854Z,44.53
2023-02-23T22:55:31.499Z,42.37
2023-02-23T22:57:58.602Z,39.83
2023-02-23T23:00:26.990Z,39.20
2023-02-23T23:02:53.828Z,37.43
2023-02-23T23:05:21.662Z,37.27
2023-02-23T23:07:48.737Z,38.10
2023-02-23T23:10:16.009Z,38.20
2023-02-23T23:12:42.488Z,37.40
2023-02-23T23:15:15.051Z,41.03
2023-02-23T23:17:50.989Z,41.00
2023-02-23T23:20:18.909Z,42.33
2023-02-23T23:22:45.870Z,39.80
2023-02-23T23:25:15.161Z,40.60
2023-02-23T23:27:42.518Z,39.57
2023-02-23T23:30:11.216Z,41.97
2023-02-23T23:32:39.648Z,40.23
2023-02-23T23:35:10.989Z,39.83
2023-02-23T23:37:39.818Z,43.07
2023-02-23T23:40:14.197Z,41.57
2023-02-23T23:42:45.835Z,40.70
2023-02-23T23:45:20.770Z,41.63
2023-02-23T23:47:47.431Z,41.57
2023-02-23T23:50:17.619Z,40.83
2023-02-23T23:52:44.783Z,40.10
2023-02-23T23:55:12.133Z,41.50
2023-02-23T23:57:39.022Z,39.83
